createdAt,value
2022-09-04T00:02:23.389Z,101468.13
2022-09-04T00:05:01.023Z,101466.53
2022-09-04T00:07:48.366Z,101475.75
2022-09-04T00:10:23.961Z,101477.63
2022-09-04T00:12:58.107Z,101480.59
2022-09-04T00:15:36.179Z,101486.28
2022-09-04T00:18:10.973Z,101485.88
2022-09-04T00:20:46.990Z,101483.31
2022-09-04T00:23:22.855Z,101491.91
2022-09-04T00:26:00.520Z,101494.75
2022-09-04T00:28:36.407Z,101499.19
2022-09-04T00:31:20.506Z,101494.53
2022-09-04T00:33:56.242Z,101498.28
2022-09-04T00:36:27.623Z,101494.13
2022-09-04T00:39:03.683Z,101494.81
2022-09-04T00:41:44.031Z,101499.38
2022-09-04T00:44:42.759Z,101502.59
2022-09-04T00:47:46.186Z,101496.38
2022-09-04T00:50:41.574Z,101512.41
2022-09-04T00:53:32.287Z,101516.72
2022-09-04T00:56:28.046Z,101520.91
2022-09-04T00:59:15.980Z,101524.44
2022-09-04T01:02:19.495Z,101523.72
2022-09-04T01:04:58.127Z,101539.59
2022-09-04T01:07:45.490Z,101532.34
2022-09-04T01:10:30.101Z,101537.28
2022-09-04T01:13:10.690Z,101529.34
2022-09-04T01:15:45.950Z,101540.78
2022-09-04T01:18:20.648Z,101538.22
2022-09-04T01:21:30.853Z,101543.75
2022-09-04T01:24:24.034Z,101545.47
2022-09-04T01:27:04.521Z,101545.97
2022-09-04T01:29:47.941Z,101544.63
2022-09-04T01:32:32.917Z,101545.78
2022-09-04T01:35:13.554Z,101537.66
2022-09-04T01:37:52.922Z,101544.06
2022-09-04T01:40:35.858Z,101550.56
2022-09-04T01:43:10.920Z,101552.53
2022-09-04T01:46:17.053Z,101556.09
2022-09-04T01:48:53.190Z,101553.16
2022-09-04T01:51:32.806Z,101547.56
2022-09-04T01:54:27.733Z,101564.75
2022-09-04T01:57:14.897Z,101563.00
2022-09-04T02:00:02.498Z,101570.84
2022-09-04T02:02:48.864Z,101562.66
2022-09-04T02:05:31.023Z,101575.94
2022-09-04T02:08:15.922Z,101570.50
2022-09-04T02:10:53.982Z,101569.75
2022-09-04T02:13:34.189Z,101581.63
2022-09-04T02:16:14.687Z,101573.97
2022-09-04T02:18:56.800Z,101586.66
2022-09-04T02:21:34.317Z,101579.53
2022-09-04T02:24:14.717Z,101570.31
2022-09-04T02:26:52.255Z,101580.78
2022-09-04T02:29:29.120Z,101585.22
2022-09-04T02:32:13.127Z,101596.50
2022-09-04T02:34:50.710Z,101591.06
2022-09-04T02:37:30.365Z,101586.00
2022-09-04T02:40:13.643Z,101591.63
2022-09-04T02:43:16.907Z,101588.41
2022-09-04T02:45:57.223Z,101589.06
2022-09-04T02:48:42.443Z,101589.28
2022-09-04T02:51:24.838Z,101599.63
2022-09-04T02:54:03.884Z,101593.38
2022-09-04T02:56:48.869Z,101599.56
2022-09-04T02:59:32.476Z,101604.13
2022-09-04T03:02:04.523Z,101604.13
2022-09-04T03:04:44.415Z,101616.44
2022-09-04T03:07:19.424Z,101620.88
2022-09-04T03:09:53.053Z,101606.41
2022-09-04T03:12:33.508Z,101613.84
2022-09-04T03:15:14.539Z,101624.59
2022-09-04T03:17:55.514Z,101626.09
2022-09-04T03:20:28.045Z,101620.66
2022-09-04T03:23:04.476Z,101617.94
2022-09-04T03:26:17.786Z,101627.47
2022-09-04T03:29:10.182Z,101633.53
2022-09-04T03:31:49.106Z,101625.44
2022-09-04T03:34:31.365Z,101636.91
2022-09-04T03:37:21.324Z,101655.22
2022-09-04T03:40:06.036Z,101649.81
2022-09-04T03:42:46.063Z,101645.03
2022-09-04T03:45:28.631Z,101654.13
2022-09-04T03:48:15.552Z,101667.56
2022-09-04T03:50:56.533Z,101660.06
2022-09-04T03:53:33.250Z,101663.84
2022-09-04T03:56:47.162Z,101663.00
2022-09-04T03:59:27.829Z,101678.38
2022-09-04T04:02:07.471Z,101671.56
2022-09-04T04:05:12.065Z,101667.22
2022-09-04T04:07:55.490Z,101672.84
2022-09-04T04:10:40.463Z,101663.97
2022-09-04T04:13:36.829Z,101665.19
2022-09-04T04:16:26.643Z,101678.59
2022-09-04T04:19:23.024Z,101683.13
2022-09-04T04:22:10.241Z,101686.59
2022-09-04T04:25:06.127Z,101696.66
2022-09-04T04:28:01.481Z,101695.25
2022-09-04T04:30:38.079Z,101715.19
2022-09-04T04:33:36.333Z,101719.16
2022-09-04T04:36:17.665Z,101734.50
2022-09-04T04:39:04.439Z,101722.09
2022-09-04T04:42:00.750Z,101721.13
2022-09-04T04:45:26.413Z,101715.19
2022-09-04T04:48:54.119Z,101717.00
2022-09-04T04:52:05.831Z,101714.19
2022-09-04T04:54:59.201Z,101723.94
2022-09-04T04:57:39.563Z,101741.47
2022-09-04T05:00:16.103Z,101737.56
2022-09-04T05:03:01.502Z,101739.09
2022-09-04T05:05:58.790Z,101740.16
2022-09-04T05:08:41.730Z,101749.69
2022-09-04T05:11:24.686Z,101759.78
2022-09-04T05:14:07.939Z,101766.78
2022-09-04T05:16:55.846Z,101756.41
2022-09-04T05:19:33.599Z,101767.09
2022-09-04T05:22:13.060Z,101780.72
2022-09-04T05:24:56.634Z,101786.88
2022-09-04T05:27:48.269Z,101785.31
2022-09-04T05:30:23.050Z,101796.41
2022-09-04T05:33:02.166Z,101796.88
2022-09-04T05:35:42.694Z,101802.91
2022-09-04T05:38:21.769Z,101799.91
2022-09-04T05:41:08.049Z,101817.63
2022-09-04T05:43:47.963Z,101820.44
2022-09-04T05:46:30.732Z,101831.25
2022-09-04T05:49:06.638Z,101830.47
2022-09-04T05:52:02.051Z,101832.56
2022-09-04T05:55:01.564Z,101819.94
2022-09-04T05:57:42.399Z,101817.59
2022-09-04T06:00:16.011Z,101819.22
2022-09-04T06:03:22.859Z,101829.28
2022-09-04T06:06:13.538Z,101825.78
2022-09-04T06:09:03.174Z,101843.06
2022-09-04T06:11:46.502Z,101842.88
2022-09-04T06:14:31.690Z,101837.97
2022-09-04T06:17:24.816Z,101838.56
2022-09-04T06:20:15.834Z,101845.19
2022-09-04T06:23:25.230Z,101840.47
2022-09-04T06:26:27.687Z,101830.66
2022-09-04T06:29:24.799Z,101818.56
2022-09-04T06:32:23.837Z,101831.28
2022-09-04T06:35:20.991Z,101833.88
2022-09-04T06:38:09.247Z,101829.53
2022-09-04T06:40:53.460Z,101826.28
2022-09-04T06:43:33.857Z,101829.41
2022-09-04T06:46:20.391Z,101831.19
2022-09-04T06:49:02.730Z,101825.41
2022-09-04T06:52:06.057Z,101835.00
2022-09-04T06:54:56.382Z,101827.81
2022-09-04T06:57:50.759Z,101835.19
2022-09-04T07:00:20.716Z,101828.03
2022-09-04T07:03:18.280Z,101832.78
2022-09-04T07:06:01.421Z,101825.41
2022-09-04T07:08:47.092Z,101810.66
2022-09-04T07:11:33.504Z,101821.28
2022-09-04T07:14:32.093Z,101834.59
2022-09-04T07:17:11.557Z,101839.78
2022-09-04T07:20:16.541Z,101825.97
2022-09-04T07:23:03.218Z,101834.44
2022-09-04T07:25:44.259Z,101827.88
2022-09-04T07:28:38.947Z,101823.09
2022-09-04T07:31:12.929Z,101829.94
2022-09-04T07:33:53.130Z,101824.22
2022-09-04T07:36:33.206Z,101834.13
2022-09-04T07:39:10.611Z,101837.44
2022-09-04T07:41:47.763Z,101822.69
2022-09-04T07:44:27.267Z,101824.19
2022-09-04T07:47:12.309Z,101823.56
2022-09-04T07:50:02.462Z,101817.31
2022-09-04T07:53:02.666Z,101813.75
2022-09-04T07:55:40.533Z,101819.44
2022-09-04T07:59:00.983Z,101818.91
2022-09-04T08:02:00.081Z,101825.81
2022-09-04T08:05:08.689Z,101826.81
2022-09-04T08:08:24.854Z,101832.28
2022-09-04T08:11:13.655Z,101836.47
2022-09-04T08:14:06.369Z,101828.69
2022-09-04T08:16:46.284Z,101830.41
2022-09-04T08:19:30.566Z,101840.84
2022-09-04T08:21:59.851Z,101836.19
2022-09-04T08:25:19.222Z,101839.91
2022-09-04T08:28:24.399Z,101849.09
2022-09-04T08:31:06.319Z,101846.41
2022-09-04T08:34:24.804Z,101843.69
2022-09-04T08:37:03.500Z,101841.00
2022-09-04T08:39:41.664Z,101847.34
2022-09-04T08:42:50.544Z,101841.03
2022-09-04T08:46:15.720Z,101843.19
2022-09-04T08:49:47.001Z,101844.94
2022-09-04T08:52:52.579Z,101837.88
2022-09-04T08:55:46.924Z,101844.41
2022-09-04T08:59:31.407Z,101843.38
2022-09-04T09:02:52.305Z,101849.75
2022-09-04T09:06:29.733Z,101840.63
2022-09-04T09:09:40.931Z,101838.03
2022-09-04T09:13:04.830Z,101848.22
2022-09-04T09:16:04.174Z,101846.75
2022-09-04T09:18:40.633Z,101849.03
2022-09-04T09:21:13.585Z,101844.19
2022-09-04T09:24:16.637Z,101829.88
2022-09-04T09:27:09.548Z,101837.78
2022-09-04T09:30:05.229Z,101835.03
2022-09-04T09:33:32.344Z,101845.84
2022-09-04T09:36:54.319Z,101842.44
2022-09-04T09:40:11.872Z,101841.78
2022-09-04T09:43:26.759Z,101836.09
2022-09-04T09:46:33.211Z,101847.94
2022-09-04T09:50:01.029Z,101841.06
2022-09-04T09:53:23.910Z,101842.81
2022-09-04T09:56:42.842Z,101845.16
2022-09-04T10:00:13.257Z,101845.56
2022-09-04T10:03:50.229Z,101841.53
2022-09-04T10:07:02.361Z,101842.75
2022-09-04T10:10:41.198Z,101847.97
2022-09-04T10:13:57.476Z,101841.06
2022-09-04T10:17:17.156Z,101842.91
2022-09-04T10:20:50.702Z,101841.59
2022-09-04T10:23:58.400Z,101841.34
2022-09-04T10:27:12.333Z,101845.78
2022-09-04T10:30:00.973Z,101846.28
2022-09-04T10:33:09.193Z,101850.72
2022-09-04T10:35:58.115Z,101848.63
2022-09-04T10:39:00.818Z,101845.25
2022-09-04T10:41:53.156Z,101856.44
2022-09-04T10:44:51.431Z,101854.72
2022-09-04T10:47:38.535Z,101866.03
2022-09-04T10:50:40.025Z,101859.88
2022-09-04T10:53:31.834Z,101849.53
2022-09-04T10:56:09.645Z,101848.31
2022-09-04T10:59:10.241Z,101851.53
2022-09-04T11:02:16.538Z,101846.00
2022-09-04T11:05:30.228Z,101842.09
2022-09-04T11:08:24.248Z,101846.59
2022-09-04T11:11:20.235Z,101852.03
2022-09-04T11:14:25.590Z,101849.47
2022-09-04T11:17:38.773Z,101849.09
2022-09-04T11:20:49.984Z,101844.97
2022-09-04T11:24:20.956Z,101845.25
2022-09-04T11:27:49.281Z,101844.94
2022-09-04T11:30:21.248Z,101855.34
2022-09-04T11:33:50.965Z,101846.94
2022-09-04T11:36:58.115Z,101853.59
2022-09-04T11:40:44.396Z,101845.78
2022-09-04T11:43:36.845Z,101845.31
2022-09-04T11:46:39.831Z,101850.69
2022-09-04T11:49:40.759Z,101846.25
2022-09-04T11:52:23.779Z,101844.78
2022-09-04T11:55:24.049Z,101851.78
2022-09-04T11:58:12.262Z,101856.75
2022-09-04T12:00:59.376Z,101848.66
2022-09-04T12:04:02.828Z,101856.59
2022-09-04T12:06:51.141Z,101850.38
2022-09-04T12:10:11.558Z,101851.72
2022-09-04T12:13:15.663Z,101853.41
2022-09-04T12:16:32.897Z,101858.19
2022-09-04T12:19:46.599Z,101859.41
2022-09-04T12:22:57.125Z,101852.31
2022-09-04T12:25:53.498Z,101858.75
2022-09-04T12:29:01.303Z,101866.22
2022-09-04T12:31:56.871Z,101862.88
2022-09-04T12:34:50.202Z,101871.16
2022-09-04T12:37:48.853Z,101858.03
2022-09-04T12:40:51.737Z,101863.28
2022-09-04T12:43:36.933Z,101853.19
2022-09-04T12:46:38.383Z,101856.91
2022-09-04T12:49:30.642Z,101864.16
2022-09-04T12:52:19.063Z,101870.38
2022-09-04T12:55:04.865Z,101864.47
2022-09-04T12:57:49.153Z,101860.38
2022-09-04T13:00:18.564Z,101858.78
2022-09-04T13:03:01.509Z,101864.56
2022-09-04T13:05:53.596Z,101857.53
2022-09-04T13:08:35.810Z,101851.56
2022-09-04T13:11:19.906Z,101854.75
2022-09-04T13:14:00.810Z,101856.88
2022-09-04T13:16:39.557Z,101859.13
2022-09-04T13:19:18.402Z,101855.28
2022-09-04T13:22:17.312Z,101862.25
2022-09-04T13:25:02.590Z,101862.81
2022-09-04T13:27:40.850Z,101859.69
2022-09-04T13:30:21.682Z,101866.34
2022-09-04T13:33:14.562Z,101868.88
2022-09-04T13:36:06.783Z,101871.09
2022-09-04T13:39:13.515Z,101872.00
2022-09-04T13:42:33.462Z,101868.09
2022-09-04T13:45:12.096Z,101877.44
2022-09-04T13:47:50.873Z,101878.72
2022-09-04T13:50:26.203Z,101874.19
2022-09-04T13:52:59.646Z,101866.97
2022-09-04T13:55:32.987Z,101875.13
2022-09-04T13:58:10.829Z,101873.31
2022-09-04T14:00:46.979Z,101870.44
2022-09-04T14:03:31.424Z,101876.56
2022-09-04T14:06:00.967Z,101878.97
2022-09-04T14:08:31.112Z,101867.78
2022-09-04T14:11:39.278Z,101882.09
2022-09-04T14:14:48.521Z,101880.16
2022-09-04T14:17:26.916Z,101872.56
2022-09-04T14:20:04.355Z,101880.25
2022-09-04T14:22:46.012Z,101879.59
2022-09-04T14:25:22.435Z,101869.69
2022-09-04T14:28:00.057Z,101878.44
2022-09-04T14:30:29.682Z,101877.72
2022-09-04T14:33:21.689Z,101879.50
2022-09-04T14:36:02.451Z,101884.66
2022-09-04T14:39:15.758Z,101881.53
2022-09-04T14:42:06.859Z,101879.41
2022-09-04T14:44:52.414Z,101883.78
2022-09-04T14:47:31.578Z,101877.59
2022-09-04T14:50:03.589Z,101879.50
2022-09-04T14:53:02.269Z,101874.78
2022-09-04T14:55:33.533Z,101878.84
2022-09-04T14:58:27.349Z,101877.50
2022-09-04T15:01:03.705Z,101866.56
2022-09-04T15:03:38.266Z,101877.31
2022-09-04T15:06:19.366Z,101878.19
2022-09-04T15:08:51.486Z,101878.63
2022-09-04T15:11:31.850Z,101871.22
2022-09-04T15:14:08.934Z,101872.19
2022-09-04T15:16:50.585Z,101877.13
2022-09-04T15:19:54.993Z,101877.72
2022-09-04T15:22:34.827Z,101878.16
2022-09-04T15:25:09.177Z,101875.88
2022-09-04T15:27:50.702Z,101886.38
2022-09-04T15:30:23.187Z,101881.38
2022-09-04T15:33:03.538Z,101881.19
2022-09-04T15:35:33.944Z,101877.97
2022-09-04T15:38:21.800Z,101884.41
2022-09-04T15:41:16.964Z,101876.50
2022-09-04T15:43:52.073Z,101873.50
2022-09-04T15:46:31.827Z,101882.28
2022-09-04T15:49:20.293Z,101869.19
2022-09-04T15:51:56.163Z,101874.47
2022-09-04T15:54:38.515Z,101874.53
2022-09-04T15:57:14.602Z,101874.09
2022-09-04T15:59:52.163Z,101874.97
2022-09-04T16:02:36.282Z,101870.59
2022-09-04T16:05:14.956Z,101875.56
2022-09-04T16:07:54.497Z,101873.84
2022-09-04T16:10:33.346Z,101875.16
2022-09-04T16:13:11.987Z,101869.09
2022-09-04T16:15:43.750Z,101871.44
2022-09-04T16:18:19.574Z,101870.53
2022-09-04T16:20:55.034Z,101856.03
2022-09-04T16:23:30.822Z,101869.78
2022-09-04T16:26:09.939Z,101859.19
2022-09-04T16:28:45.480Z,101863.22
2022-09-04T16:31:16.893Z,101860.97
2022-09-04T16:33:53.266Z,101862.00
2022-09-04T16:36:28.309Z,101859.91
2022-09-04T16:38:59.712Z,101863.69
2022-09-04T16:41:37.566Z,101863.69
2022-09-04T16:44:26.201Z,101863.16
2022-09-04T16:47:04.535Z,101868.66
2022-09-04T16:49:42.216Z,101865.22
2022-09-04T16:52:44.733Z,101864.22
2022-09-04T16:55:21.630Z,101870.44
2022-09-04T16:58:07.114Z,101868.53
2022-09-04T17:00:56.186Z,101867.41
2022-09-04T17:03:41.610Z,101863.56
2022-09-04T17:06:23.087Z,101870.84
2022-09-04T17:09:04.275Z,101868.69
2022-09-04T17:11:55.520Z,101870.44
2022-09-04T17:14:33.306Z,101877.69
2022-09-04T17:17:21.593Z,101874.09
2022-09-04T17:20:06.081Z,101869.81
2022-09-04T17:28:56.955Z,101881.22
2022-09-04T17:28:57.899Z,101874.53
2022-09-04T17:29:08.978Z,101876.47
2022-09-04T17:31:45.309Z,101880.25
2022-09-04T17:40:53.291Z,101887.47
2022-09-04T17:40:53.607Z,101885.75
2022-09-04T17:40:56.942Z,101881.09
2022-09-04T17:43:27.711Z,101889.91
2022-09-04T17:46:09.554Z,101876.09
2022-09-04T17:48:44.933Z,101877.13
2022-09-04T17:51:24.758Z,101885.72
2022-09-04T17:53:58.214Z,101884.78
2022-09-04T17:56:32.818Z,101887.38
2022-09-04T17:59:09.485Z,101891.44
2022-09-04T18:01:59.321Z,101890.38
2022-09-04T18:04:39.366Z,101889.59
2022-09-04T18:07:50.954Z,101898.63
2022-09-04T18:10:18.811Z,101900.88
2022-09-04T18:12:53.237Z,101904.38
2022-09-04T18:15:34.701Z,101903.66
2022-09-04T18:18:14.715Z,101910.22
2022-09-04T18:20:51.921Z,101909.63
2022-09-04T18:24:03.594Z,101920.41
2022-09-04T18:26:41.498Z,101923.16
2022-09-04T18:32:57.627Z,101934.03
2022-09-04T18:37:07.259Z,101928.94
2022-09-04T18:37:22.080Z,101935.94
2022-09-04T18:39:08.741Z,101939.69
2022-09-04T18:48:21.754Z,101947.63
2022-09-04T18:50:42.919Z,101955.81
2022-09-04T18:50:50.779Z,101947.22
2022-09-04T18:51:19.502Z,101966.47
2022-09-04T18:53:55.186Z,101959.28
2022-09-04T18:56:29.491Z,101966.06
2022-09-04T18:59:08.825Z,101968.50
2022-09-04T19:01:46.745Z,101977.22
2022-09-04T19:04:53.185Z,101982.38
2022-09-04T19:07:31.864Z,101984.25
2022-09-04T19:10:25.420Z,101996.69
2022-09-04T19:13:08.241Z,101990.44
2022-09-04T19:15:58.382Z,101995.31
2022-09-04T19:18:43.697Z,101989.97
2022-09-04T19:21:32.520Z,101993.41
2022-09-04T19:24:26.020Z,102000.94
2022-09-04T19:27:26.622Z,101993.00
2022-09-04T19:30:19.794Z,101992.50
2022-09-04T19:33:10.633Z,102004.69
2022-09-04T19:35:47.876Z,102006.22
2022-09-04T19:45:39.633Z,102007.19
2022-09-04T19:46:00.639Z,102005.13
2022-09-04T19:46:01.576Z,102009.81
2022-09-04T19:47:38.080Z,102009.69
2022-09-04T19:52:58.911Z,102015.06
2022-09-04T19:53:38.830Z,102016.91
2022-09-04T19:56:21.937Z,102020.44
2022-09-04T19:58:55.995Z,102033.19
2022-09-04T20:01:31.405Z,102014.34
2022-09-04T20:04:09.699Z,102028.50
2022-09-04T20:06:47.996Z,102028.00
2022-09-04T20:09:21.682Z,102033.00
2022-09-04T20:11:59.228Z,102030.81
2022-09-04T20:14:37.544Z,102037.97
2022-09-04T20:17:28.449Z,102022.53
2022-09-04T20:20:03.164Z,102025.38
2022-09-04T20:22:37.257Z,102016.44
2022-09-04T20:25:46.268Z,102026.38
2022-09-04T20:28:48.574Z,102038.78
2022-09-04T20:31:44.977Z,102033.72
2022-09-04T20:34:30.450Z,102033.56
2022-09-04T20:37:19.276Z,102035.53
2022-09-04T20:40:01.371Z,102034.28
2022-09-04T20:42:38.898Z,102023.06
2022-09-04T20:50:27.184Z,102032.56
2022-09-04T20:52:52.038Z,102030.84
2022-09-04T20:52:53.416Z,102031.56
2022-09-04T20:54:55.665Z,102052.09
2022-09-04T21:03:11.861Z,102055.31
2022-09-04T21:03:14.006Z,102051.63
2022-09-04T21:03:38.953Z,102023.78
2022-09-04T21:06:29.649Z,102024.53
2022-09-04T21:09:18.900Z,102038.13
2022-09-04T21:11:52.054Z,102040.69
2022-09-04T21:14:44.851Z,102045.50
2022-09-04T21:17:50.035Z,102029.69
2022-09-04T21:21:02.429Z,102027.56
2022-09-04T21:24:03.430Z,102039.44
2022-09-04T21:26:59.958Z,102021.91
2022-09-04T21:29:57.859Z,102040.16
2022-09-04T21:33:28.365Z,102027.88
2022-09-04T21:35:55.548Z,102050.78
2022-09-04T21:39:14.734Z,102057.00
2022-09-04T21:41:59.283Z,102047.09
2022-09-04T21:45:12.957Z,102047.22
2022-09-04T21:48:28.211Z,102053.34
2022-09-04T21:51:29.093Z,102053.13
2022-09-04T21:57:17.642Z,102053.81
2022-09-04T22:02:37.800Z,102056.66
2022-09-04T22:02:45.673Z,102059.03
2022-09-04T22:04:55.285Z,102060.72
2022-09-04T22:11:39.857Z,102072.06
2022-09-04T22:13:29.713Z,102081.84
2022-09-04T22:13:50.412Z,102083.28
2022-09-04T22:16:47.103Z,102072.00
2022-09-04T22:19:25.348Z,102069.91
2022-09-04T22:22:04.125Z,102078.03
2022-09-04T22:25:20.135Z,102076.97
2022-09-04T22:28:37.240Z,102077.66
2022-09-04T22:31:29.590Z,102073.25
2022-09-04T22:34:47.797Z,102081.13
2022-09-04T22:38:00.142Z,102068.50
2022-09-04T22:40:56.781Z,102077.00
2022-09-04T22:43:29.195Z,102079.13
2022-09-04T22:47:24.461Z,102066.13
2022-09-04T22:50:39.036Z,102080.72
2022-09-04T22:53:42.917Z,102080.50
2022-09-04T22:56:24.137Z,102077.91
2022-09-04T22:59:33.914Z,102079.84
2022-09-04T23:03:06.611Z,102078.34
2022-09-04T23:08:40.920Z,102082.91
2022-09-04T23:13:54.634Z,102083.34
2022-09-04T23:13:57.803Z,102077.28
2022-09-04T23:15:48.394Z,102080.22
2022-09-04T23:19:50.201Z,102074.03
2022-09-04T23:26:35.495Z,102083.72
2022-09-04T23:26:45.503Z,102079.69
2022-09-04T23:28:28.752Z,102074.03
2022-09-04T23:31:19.972Z,102074.13
2022-09-04T23:35:13.532Z,102081.69
2022-09-04T23:38:09.691Z,102075.34
2022-09-04T23:40:47.172Z,102063.75
2022-09-04T23:43:47.745Z,102054.47
2022-09-04T23:46:45.278Z,102054.28
2022-09-04T23:49:52.091Z,102062.09
2022-09-04T23:52:30.597Z,102050.63
2022-09-04T23:55:17.623Z,102046.09
2022-09-04T23:57:54.338Z,102038.84
